sensor_id;sensor_type;location;lat;lon;timestamp;P1;durP1;ratioP1;P2;durP2;ratioP2
36373;SDS011;22399;51.346;12.372;2023-04-08T00:00:32;11.18;;;2.28;;
36373;SDS011;22399;51.346;12.372;2023-04-08T00:03:00;6.80;;;2.53;;
36373;SDS011;22399;51.346;12.372;2023-04-08T00:05:29;5.47;;;2.70;;
36373;SDS011;22399;51.346;12.372;2023-04-08T00:07:58;7.50;;;2.45;;
36373;SDS011;22399;51.346;12.372;2023-04-08T00:10:26;4.75;;;2.00;;
36373;SDS011;22399;51.346;12.372;2023-04-08T00:12:54;8.40;;;1.88;;
36373;SDS011;22399;51.346;12.372;2023-04-08T00:15:24;4.82;;;2.17;;
36373;SDS011;22399;51.346;12.372;2023-04-08T00:17:52;4.55;;;1.73;;
36373;SDS011;22399;51.346;12.372;2023-04-08T00:20:21;5.57;;;2.25;;
36373;SDS011;22399;51.346;12.372;2023-04-08T00:22:50;4.10;;;2.25;;
36373;SDS011;22399;51.346;12.372;2023-04-08T00:25:19;5.78;;;2.40;;
36373;SDS011;22399;51.346;12.372;2023-04-08T00:27:51;5.03;;;2.33;;
36373;SDS011;22399;51.346;12.372;2023-04-08T00:30:19;6.80;;;2.53;;
36373;SDS011;22399;51.346;12.372;2023-04-08T00:32:49;8.73;;;2.15;;
36373;SDS011;22399;51.346;12.372;2023-04-08T00:35:17;5.97;;;1.77;;
36373;SDS011;22399;51.346;12.372;2023-04-08T00:37:47;6.95;;;2.33;;
36373;SDS011;22399;51.346;12.372;2023-04-08T00:40:15;4.80;;;2.47;;
36373;SDS011;22399;51.346;12.372;2023-04-08T00:42:44;5.68;;;2.20;;
36373;SDS011;22399;51.346;12.372;2023-04-08T00:45:12;6.20;;;2.17;;
36373;SDS011;22399;51.346;12.372;2023-04-08T00:47:41;3.10;;;1.65;;
36373;SDS011;22399;51.346;12.372;2023-04-08T00:50:11;5.30;;;2.00;;
36373;SDS011;22399;51.346;12.372;2023-04-08T00:52:40;3.97;;;1.25;;
36373;SDS011;22399;51.346;12.372;2023-04-08T00:55:09;3.58;;;1.92;;
36373;SDS011;22399;51.346;12.372;2023-04-08T00:57:38;5.22;;;2.40;;
36373;SDS011;22399;51.346;12.372;2023-04-08T01:00:07;3.78;;;1.58;;
36373;SDS011;22399;51.346;12.372;2023-04-08T01:02:38;13.85;;;2.13;;
36373;SDS011;22399;51.346;12.372;2023-04-08T01:05:18;4.82;;;1.58;;
36373;SDS011;22399;51.346;12.372;2023-04-08T01:07:50;5.03;;;1.83;;
36373;SDS011;22399;51.346;12.372;2023-04-08T01:10:20;6.65;;;2.47;;
36373;SDS011;22399;51.346;12.372;2023-04-08T01:12:51;3.22;;;1.67;;
36373;SDS011;22399;51.346;12.372;2023-04-08T01:15:22;5.45;;;1.88;;
36373;SDS011;22399;51.346;12.372;2023-04-08T01:17:54;2.75;;;1.67;;
36373;SDS011;22399;51.346;12.372;2023-04-08T01:20:25;5.63;;;2.53;;
36373;SDS011;22399;51.346;12.372;2023-04-08T01:23:01;18.65;;;2.63;;
36373;SDS011;22399;51.346;12.372;2023-04-08T01:25:36;7.22;;;2.42;;
36373;SDS011;22399;51.346;12.372;2023-04-08T01:28:06;4.97;;;1.85;;
36373;SDS011;22399;51.346;12.372;2023-04-08T01:30:38;7.90;;;2.78;;
36373;SDS011;22399;51.346;12.372;2023-04-08T01:33:08;8.80;;;2.58;;
36373;SDS011;22399;51.346;12.372;2023-04-08T01:35:38;5.22;;;2.10;;
36373;SDS011;22399;51.346;12.372;2023-04-08T01:38:08;6.43;;;2.28;;
36373;SDS011;22399;51.346;12.372;2023-04-08T01:40:40;8.35;;;3.03;;
36373;SDS011;22399;51.346;12.372;2023-04-08T01:43:11;5.43;;;2.33;;
36373;SDS011;22399;51.346;12.372;2023-04-08T01:45:42;6.75;;;2.60;;
36373;SDS011;22399;51.346;12.372;2023-04-08T01:48:12;7.18;;;2.13;;
36373;SDS011;22399;51.346;12.372;2023-04-08T01:50:42;5.82;;;1.92;;
36373;SDS011;22399;51.346;12.372;2023-04-08T01:53:12;11.40;;;2.80;;
36373;SDS011;22399;51.346;12.372;2023-04-08T01:55:41;3.97;;;1.73;;
36373;SDS011;22399;51.346;12.372;2023-04-08T01:58:14;5.70;;;1.95;;
36373;SDS011;22399;51.346;12.372;2023-04-08T02:00:48;8.13;;;1.83;;
36373;SDS011;22399;51.346;12.372;2023-04-08T02:03:20;5.03;;;2.10;;
36373;SDS011;22399;51.346;12.372;2023-04-08T02:05:52;3.15;;;1.45;;
36373;SDS011;22399;51.346;12.372;2023-04-08T02:08:21;7.55;;;2.55;;
36373;SDS011;22399;51.346;12.372;2023-04-08T02:10:49;7.55;;;2.22;;
36373;SDS011;22399;51.346;12.372;2023-04-08T02:13:19;6.45;;;2.38;;
36373;SDS011;22399;51.346;12.372;2023-04-08T02:15:50;5.70;;;2.53;;
36373;SDS011;22399;51.346;12.372;2023-04-08T02:18:24;3.97;;;1.85;;
36373;SDS011;22399;51.346;12.372;2023-04-08T02:20:55;9.85;;;2.58;;
36373;SDS011;22399;51.346;12.372;2023-04-08T02:23:28;9.23;;;2.58;;
36373;SDS011;22399;51.346;12.372;2023-04-08T02:26:01;6.53;;;2.10;;
36373;SDS011;22399;51.346;12.372;2023-04-08T02:28:33;7.95;;;2.75;;
36373;SDS011;22399;51.346;12.372;2023-04-08T02:31:03;9.65;;;2.17;;
36373;SDS011;22399;51.346;12.372;2023-04-08T02:33:35;11.00;;;2.35;;
36373;SDS011;22399;51.346;12.372;2023-04-08T02:36:05;9.13;;;2.53;;
36373;SDS011;22399;51.346;12.372;2023-04-08T02:38:35;5.53;;;2.65;;
36373;SDS011;22399;51.346;12.372;2023-04-08T02:41:03;9.68;;;2.55;;
36373;SDS011;22399;51.346;12.372;2023-04-08T02:43:31;8.98;;;2.33;;
36373;SDS011;22399;51.346;12.372;2023-04-08T02:46:04;8.45;;;3.13;;
36373;SDS011;22399;51.346;12.372;2023-04-08T02:48:35;10.00;;;2.65;;
36373;SDS011;22399;51.346;12.372;2023-04-08T02:51:03;14.80;;;3.70;;
36373;SDS011;22399;51.346;12.372;2023-04-08T02:53:32;4.20;;;2.08;;
36373;SDS011;22399;51.346;12.372;2023-04-08T02:56:00;8.85;;;2.55;;
36373;SDS011;22399;51.346;12.372;2023-04-08T02:58:28;7.38;;;2.53;;
36373;SDS011;22399;51.346;12.372;2023-04-08T03:00:58;9.43;;;2.65;;
36373;SDS011;22399;51.346;12.372;2023-04-08T03:03:27;8.45;;;2.63;;
36373;SDS011;22399;51.346;12.372;2023-04-08T03:05:57;9.05;;;3.60;;
36373;SDS011;22399;51.346;12.372;2023-04-08T03:08:25;6.40;;;2.92;;
36373;SDS011;22399;51.346;12.372;2023-04-08T03:10:54;8.50;;;3.33;;
36373;SDS011;22399;51.346;12.372;2023-04-08T03:13:22;10.00;;;3.97;;
36373;SDS011;22399;51.346;12.372;2023-04-08T03:15:51;11.38;;;3.65;;
36373;SDS011;22399;51.346;12.372;2023-04-08T03:18:20;8.63;;;2.92;;
36373;SDS011;22399;51.346;12.372;2023-04-08T03:20:48;12.15;;;3.45;;
36373;SDS011;22399;51.346;12.372;2023-04-08T03:23:17;9.88;;;3.15;;
36373;SDS011;22399;51.346;12.372;2023-04-08T03:25:46;10.27;;;3.63;;
36373;SDS011;22399;51.346;12.372;2023-04-08T03:28:14;10.93;;;2.97;;
36373;SDS011;22399;51.346;12.372;2023-04-08T03:30:43;12.18;;;3.60;;
36373;SDS011;22399;51.346;12.372;2023-04-08T03:33:11;9.20;;;3.25;;
36373;SDS011;22399;51.346;12.372;2023-04-08T03:35:41;13.45;;;4.43;;
36373;SDS011;22399;51.346;12.372;2023-04-08T03:38:09;11.57;;;4.32;;
36373;SDS011;22399;51.346;12.372;2023-04-08T03:40:38;6.80;;;2.80;;
36373;SDS011;22399;51.346;12.372;2023-04-08T03:43:06;10.15;;;2.63;;
36373;SDS011;22399;51.346;12.372;2023-04-08T03:45:37;12.15;;;3.00;;
36373;SDS011;22399;51.346;12.372;2023-04-08T03:48:06;9.15;;;3.10;;
36373;SDS011;22399;51.346;12.372;2023-04-08T03:50:35;11.48;;;3.53;;
36373;SDS011;22399;51.346;12.372;2023-04-08T03:53:05;13.65;;;3.90;;
36373;SDS011;22399;51.346;12.372;2023-04-08T03:55:36;10.73;;;3.60;;
36373;SDS011;22399;51.346;12.372;2023-04-08T04:00:38;11.90;;;3.70;;
36373;SDS011;22399;51.346;12.372;2023-04-08T04:03:07;17.10;;;3.70;;
36373;SDS011;22399;51.346;12.372;2023-04-08T04:05:39;13.85;;;3.50;;
36373;SDS011;22399;51.346;12.372;2023-04-08T04:08:09;4.97;;;2.22;;
36373;SDS011;22399;51.346;12.372;2023-04-08T04:10:37;6.63;;;2.50;;
36373;SDS011;22399;51.346;12.372;2023-04-08T04:13:06;6.35;;;2.63;;
36373;SDS011;22399;51.346;12.372;2023-04-08T04:15:36;8.73;;;2.70;;
36373;SDS011;22399;51.346;12.372;2023-04-08T04:18:06;8.63;;;3.00;;
36373;SDS011;22399;51.346;12.372;2023-04-08T04:20:38;13.60;;;2.80;;
36373;SDS011;22399;51.346;12.372;2023-04-08T04:23:06;13.25;;;2.92;;
36373;SDS011;22399;51.346;12.372;2023-04-08T04:25:39;10.00;;;2.95;;
36373;SDS011;22399;51.346;12.372;2023-04-08T04:28:08;7.85;;;2.70;;
36373;SDS011;22399;51.346;12.372;2023-04-08T04:30:36;9.20;;;3.08;;
36373;SDS011;22399;51.346;12.372;2023-04-08T04:33:04;9.80;;;2.45;;
36373;SDS011;22399;51.346;12.372;2023-04-08T04:35:33;7.90;;;2.55;;
36373;SDS011;22399;51.346;12.372;2023-04-08T04:38:01;7.90;;;2.65;;
36373;SDS011;22399;51.346;12.372;2023-04-08T04:40:32;10.57;;;2.75;;
36373;SDS011;22399;51.346;12.372;2023-04-08T04:43:01;7.47;;;2.45;;
36373;SDS011;22399;51.346;12.372;2023-04-08T04:45:29;8.40;;;2.22;;
36373;SDS011;22399;51.346;12.372;2023-04-08T04:47:57;4.53;;;2.22;;
36373;SDS011;22399;51.346;12.372;2023-04-08T04:50:25;9.13;;;2.80;;
36373;SDS011;22399;51.346;12.372;2023-04-08T04:52:54;8.50;;;3.08;;
36373;SDS011;22399;51.346;12.372;2023-04-08T04:55:22;6.65;;;2.15;;
36373;SDS011;22399;51.346;12.372;2023-04-08T04:57:52;6.55;;;2.22;;
36373;SDS011;22399;51.346;12.372;2023-04-08T05:00:21;7.50;;;2.92;;
36373;SDS011;22399;51.346;12.372;2023-04-08T05:02:49;6.72;;;3.10;;
36373;SDS011;22399;51.346;12.372;2023-04-08T05:05:18;6.53;;;2.20;;
36373;SDS011;22399;51.346;12.372;2023-04-08T05:07:47;8.85;;;2.78;;
36373;SDS011;22399;51.346;12.372;2023-04-08T05:10:15;13.80;;;3.25;;
36373;SDS011;22399;51.346;12.372;2023-04-08T05:12:44;5.93;;;2.10;;
36373;SDS011;22399;51.346;12.372;2023-04-08T05:15:14;12.27;;;2.50;;
36373;SDS011;22399;51.346;12.372;2023-04-08T05:17:42;9.88;;;2.83;;
36373;SDS011;22399;51.346;12.372;2023-04-08T05:20:11;8.63;;;2.45;;
36373;SDS011;22399;51.346;12.372;2023-04-08T05:22:42;7.97;;;2.58;;
36373;SDS011;22399;51.346;12.372;2023-04-08T05:25:11;7.07;;;2.60;;
36373;SDS011;22399;51.346;12.372;2023-04-08T05:27:39;9.70;;;3.20;;
36373;SDS011;22399;51.346;12.372;2023-04-08T05:30:08;6.85;;;2.17;;
36373;SDS011;22399;51.346;12.372;2023-04-08T05:32:38;9.63;;;2.38;;
36373;SDS011;22399;51.346;12.372;2023-04-08T05:35:07;7.35;;;3.20;;
36373;SDS011;22399;51.346;12.372;2023-04-08T05:37:37;12.85;;;3.58;;
36373;SDS011;22399;51.346;12.372;2023-04-08T05:40:06;9.00;;;2.33;;
36373;SDS011;22399;51.346;12.372;2023-04-08T05:42:34;9.93;;;2.50;;
36373;SDS011;22399;51.346;12.372;2023-04-08T05:45:03;7.05;;;2.45;;
36373;SDS011;22399;51.346;12.372;2023-04-08T05:47:32;6.50;;;2.95;;
36373;SDS011;22399;51.346;12.372;2023-04-08T05:50:03;13.02;;;3.58;;
36373;SDS011;22399;51.346;12.372;2023-04-08T05:52:32;10.40;;;2.42;;
36373;SDS011;22399;51.346;12.372;2023-04-08T05:55:01;4.50;;;1.92;;
36373;SDS011;22399;51.346;12.372;2023-04-08T05:57:29;6.38;;;2.10;;
36373;SDS011;22399;51.346;12.372;2023-04-08T05:59:57;6.00;;;2.13;;
36373;SDS011;22399;51.346;12.372;2023-04-08T06:02:26;11.30;;;2.65;;
36373;SDS011;22399;51.346;12.372;2023-04-08T06:04:55;9.07;;;2.33;;
36373;SDS011;22399;51.346;12.372;2023-04-08T06:07:24;4.85;;;1.88;;
36373;SDS011;22399;51.346;12.372;2023-04-08T06:09:53;9.07;;;2.30;;
36373;SDS011;22399;51.346;12.372;2023-04-08T06:12:21;5.15;;;2.03;;
36373;SDS011;22399;51.346;12.372;2023-04-08T06:14:52;12.30;;;2.60;;
36373;SDS011;22399;51.346;12.372;2023-04-08T06:17:21;8.30;;;2.60;;
36373;SDS011;22399;51.346;12.372;2023-04-08T06:19:50;9.85;;;2.65;;
36373;SDS011;22399;51.346;12.372;2023-04-08T06:22:18;8.85;;;2.40;;
36373;SDS011;22399;51.346;12.372;2023-04-08T06:24:48;8.82;;;2.78;;
36373;SDS011;22399;51.346;12.372;2023-04-08T06:27:16;9.02;;;2.53;;
36373;SDS011;22399;51.346;12.372;2023-04-08T06:29:45;13.65;;;3.33;;
36373;SDS011;22399;51.346;12.372;2023-04-08T06:32:13;11.65;;;3.42;;
36373;SDS011;22399;51.346;12.372;2023-04-08T06:34:43;7.88;;;3.08;;
36373;SDS011;22399;51.346;12.372;2023-04-08T06:37:11;9.75;;;3.10;;
36373;SDS011;22399;51.346;12.372;2023-04-08T06:39:40;10.50;;;3.35;;
36373;SDS011;22399;51.346;12.372;2023-04-08T06:42:09;16.67;;;3.67;;
36373;SDS011;22399;51.346;12.372;2023-04-08T06:44:52;12.07;;;2.67;;
36373;SDS011;22399;51.346;12.372;2023-04-08T06:47:21;19.63;;;4.30;;
36373;SDS011;22399;51.346;12.372;2023-04-08T06:49:49;11.65;;;4.13;;
36373;SDS011;22399;51.346;12.372;2023-04-08T06:52:18;16.42;;;3.97;;
36373;SDS011;22399;51.346;12.372;2023-04-08T06:54:47;19.73;;;4.28;;
36373;SDS011;22399;51.346;12.372;2023-04-08T06:57:16;35.28;;;4.72;;
36373;SDS011;22399;51.346;12.372;2023-04-08T06:59:44;19.70;;;5.30;;
36373;SDS011;22399;51.346;12.372;2023-04-08T07:02:13;18.23;;;5.65;;
36373;SDS011;22399;51.346;12.372;2023-04-08T07:04:42;14.02;;;4.32;;
36373;SDS011;22399;51.346;12.372;2023-04-08T07:07:12;22.90;;;4.15;;
36373;SDS011;22399;51.346;12.372;2023-04-08T07:09:41;23.05;;;4.93;;
36373;SDS011;22399;51.346;12.372;2023-04-08T07:12:11;17.40;;;5.10;;
36373;SDS011;22399;51.346;12.372;2023-04-08T07:14:41;14.40;;;4.82;;
36373;SDS011;22399;51.346;12.372;2023-04-08T07:17:10;19.13;;;5.40;;
36373;SDS011;22399;51.346;12.372;2023-04-08T07:19:38;15.18;;;4.97;;
36373;SDS011;22399;51.346;12.372;2023-04-08T07:22:07;19.77;;;5.50;;
36373;SDS011;22399;51.346;12.372;2023-04-08T07:24:36;20.25;;;5.85;;
36373;SDS011;22399;51.346;12.372;2023-04-08T07:27:04;21.52;;;5.55;;
36373;SDS011;22399;51.346;12.372;2023-04-08T07:29:32;25.42;;;5.63;;
36373;SDS011;22399;51.346;12.372;2023-04-08T07:32:03;24.23;;;6.15;;
36373;SDS011;22399;51.346;12.372;2023-04-08T07:34:33;20.45;;;5.03;;
36373;SDS011;22399;51.346;12.372;2023-04-08T07:37:02;19.13;;;6.07;;
36373;SDS011;22399;51.346;12.372;2023-04-08T07:39:30;26.38;;;5.93;;
36373;SDS011;22399;51.346;12.372;2023-04-08T07:42:00;24.77;;;5.95;;
36373;SDS011;22399;51.346;12.372;2023-04-08T07:44:28;20.40;;;4.93;;
36373;SDS011;22399;51.346;12.372;2023-04-08T07:46:57;28.73;;;6.18;;
36373;SDS011;22399;51.346;12.372;2023-04-08T07:49:27;27.42;;;6.63;;
36373;SDS011;22399;51.346;12.372;2023-04-08T07:51:55;18.70;;;5.97;;
36373;SDS011;22399;51.346;12.372;2023-04-08T07:54:24;27.02;;;6.55;;
36373;SDS011;22399;51.346;12.372;2023-04-08T07:56:52;24.48;;;7.10;;
36373;SDS011;22399;51.346;12.372;2023-04-08T07:59:21;25.67;;;6.85;;
36373;SDS011;22399;51.346;12.372;2023-04-08T08:01:49;26.92;;;8.38;;
36373;SDS011;22399;51.346;12.372;2023-04-08T08:04:18;22.42;;;6.70;;
36373;SDS011;22399;51.346;12.372;2023-04-08T08:06:48;20.30;;;6.65;;
36373;SDS011;22399;51.346;12.372;2023-04-08T08:09:17;25.33;;;6.72;;
36373;SDS011;22399;51.346;12.372;2023-04-08T08:11:45;26.88;;;8.77;;
36373;SDS011;22399;51.346;12.372;2023-04-08T08:14:13;24.52;;;7.05;;
36373;SDS011;22399;51.346;12.372;2023-04-08T08:16:42;26.08;;;8.23;;
36373;SDS011;22399;51.346;12.372;2023-04-08T08:19:10;22.90;;;6.70;;
36373;SDS011;22399;51.346;12.372;2023-04-08T08:21:40;22.52;;;7.25;;
36373;SDS011;22399;51.346;12.372;2023-04-08T08:24:10;30.08;;;7.57;;
36373;SDS011;22399;51.346;12.372;2023-04-08T08:26:39;20.13;;;7.00;;
36373;SDS011;22399;51.346;12.372;2023-04-08T08:29:07;24.67;;;7.90;;
36373;SDS011;22399;51.346;12.372;2023-04-08T08:31:35;27.17;;;7.07;;
36373;SDS011;22399;51.346;12.372;2023-04-08T08:34:04;32.97;;;8.95;;
36373;SDS011;22399;51.346;12.372;2023-04-08T08:36:33;41.13;;;8.98;;
36373;SDS011;22399;51.346;12.372;2023-04-08T08:39:01;20.58;;;6.68;;
36373;SDS011;22399;51.346;12.372;2023-04-08T08:41:33;31.85;;;7.82;;
36373;SDS011;22399;51.346;12.372;2023-04-08T08:44:04;27.80;;;8.90;;
36373;SDS011;22399;51.346;12.372;2023-04-08T08:46:34;23.00;;;7.50;;
36373;SDS011;22399;51.346;12.372;2023-04-08T08:49:02;31.20;;;8.80;;
36373;SDS011;22399;51.346;12.372;2023-04-08T08:51:31;21.58;;;7.82;;
36373;SDS011;22399;51.346;12.372;2023-04-08T08:54:01;32.17;;;8.90;;
36373;SDS011;22399;51.346;12.372;2023-04-08T08:56:32;32.67;;;9.15;;
36373;SDS011;22399;51.346;12.372;2023-04-08T08:59:01;23.02;;;8.15;;
36373;SDS011;22399;51.346;12.372;2023-04-08T09:01:30;28.60;;;8.70;;
36373;SDS011;22399;51.346;12.372;2023-04-08T09:04:07;31.20;;;8.15;;
36373;SDS011;22399;51.346;12.372;2023-04-08T09:06:37;26.70;;;8.80;;
36373;SDS011;22399;51.346;12.372;2023-04-08T09:09:06;33.50;;;8.65;;
36373;SDS011;22399;51.346;12.372;2023-04-08T09:11:39;26.40;;;8.50;;
36373;SDS011;22399;51.346;12.372;2023-04-08T09:14:17;25.98;;;9.73;;
36373;SDS011;22399;51.346;12.372;2023-04-08T09:16:47;33.67;;;8.85;;
36373;SDS011;22399;51.346;12.372;2023-04-08T09:19:16;25.33;;;8.73;;
36373;SDS011;22399;51.346;12.372;2023-04-08T09:21:44;28.25;;;8.02;;
36373;SDS011;22399;51.346;12.372;2023-04-08T09:24:26;34.05;;;9.70;;
36373;SDS011;22399;51.346;12.372;2023-04-08T09:26:57;26.90;;;9.10;;
36373;SDS011;22399;51.346;12.372;2023-04-08T09:29:26;31.20;;;8.25;;
36373;SDS011;22399;51.346;12.372;2023-04-08T09:31:59;33.25;;;9.65;;
36373;SDS011;22399;51.346;12.372;2023-04-08T09:34:28;29.73;;;8.50;;
36373;SDS011;22399;51.346;12.372;2023-04-08T09:36:59;30.52;;;8.88;;
36373;SDS011;22399;51.346;12.372;2023-04-08T09:39:28;26.38;;;8.80;;
36373;SDS011;22399;51.346;12.372;2023-04-08T09:41:59;31.23;;;9.18;;
36373;SDS011;22399;51.346;12.372;2023-04-08T09:44:33;28.73;;;9.52;;
36373;SDS011;22399;51.346;12.372;2023-04-08T09:47:06;36.58;;;9.70;;
36373;SDS011;22399;51.346;12.372;2023-04-08T09:49:45;29.45;;;8.95;;
36373;SDS011;22399;51.346;12.372;2023-04-08T09:52:19;31.00;;;8.73;;
36373;SDS011;22399;51.346;12.372;2023-04-08T09:54:51;25.52;;;8.48;;
36373;SDS011;22399;51.346;12.372;2023-04-08T09:57:27;26.50;;;9.05;;
36373;SDS011;22399;51.346;12.372;2023-04-08T10:00:04;27.80;;;9.45;;
36373;SDS011;22399;51.346;12.372;2023-04-08T10:02:41;29.58;;;9.48;;
36373;SDS011;22399;51.346;12.372;2023-04-08T10:05:16;28.13;;;9.57;;
36373;SDS011;22399;51.346;12.372;2023-04-08T10:07:46;29.77;;;8.60;;
36373;SDS011;22399;51.346;12.372;2023-04-08T10:10:15;31.52;;;9.02;;
36373;SDS011;22399;51.346;12.372;2023-04-08T10:12:45;39.53;;;11.05;;
36373;SDS011;22399;51.346;12.372;2023-04-08T10:15:22;33.42;;;9.68;;
36373;SDS011;22399;51.346;12.372;2023-04-08T10:17:52;28.50;;;9.43;;
36373;SDS011;22399;51.346;12.372;2023-04-08T10:23:16;33.45;;;10.18;;
36373;SDS011;22399;51.346;12.372;2023-04-08T10:25:46;29.40;;;8.82;;
36373;SDS011;22399;51.346;12.372;2023-04-08T10:28:26;36.00;;;10.55;;
36373;SDS011;22399;51.346;12.372;2023-04-08T10:30:55;32.58;;;9.75;;
36373;SDS011;22399;51.346;12.372;2023-04-08T10:33:30;32.42;;;9.50;;
36373;SDS011;22399;51.346;12.372;2023-04-08T10:36:07;40.33;;;10.02;;
36373;SDS011;22399;51.346;12.372;2023-04-08T10:38:37;33.78;;;9.98;;
36373;SDS011;22399;51.346;12.372;2023-04-08T10:41:08;33.78;;;9.90;;
36373;SDS011;22399;51.346;12.372;2023-04-08T10:43:39;37.88;;;10.35;;
36373;SDS011;22399;51.346;12.372;2023-04-08T10:46:09;37.83;;;9.75;;
36373;SDS011;22399;51.346;12.372;2023-04-08T10:48:38;37.92;;;10.50;;
36373;SDS011;22399;51.346;12.372;2023-04-08T10:51:06;37.05;;;11.60;;
36373;SDS011;22399;51.346;12.372;2023-04-08T10:53:35;37.50;;;10.13;;
36373;SDS011;22399;51.346;12.372;2023-04-08T10:56:05;34.90;;;10.23;;
36373;SDS011;22399;51.346;12.372;2023-04-08T10:58:36;37.80;;;10.80;;
36373;SDS011;22399;51.346;12.372;2023-04-08T11:01:18;37.35;;;10.07;;
36373;SDS011;22399;51.346;12.372;2023-04-08T11:03:47;31.10;;;10.50;;
36373;SDS011;22399;51.346;12.372;2023-04-08T11:06:16;33.63;;;8.57;;
36373;SDS011;22399;51.346;12.372;2023-04-08T11:08:45;29.33;;;8.95;;
36373;SDS011;22399;51.346;12.372;2023-04-08T11:11:14;32.40;;;9.50;;
36373;SDS011;22399;51.346;12.372;2023-04-08T11:13:44;31.95;;;9.82;;
36373;SDS011;22399;51.346;12.372;2023-04-08T11:16:21;38.22;;;10.43;;
36373;SDS011;22399;51.346;12.372;2023-04-08T11:18:50;28.42;;;10.45;;
36373;SDS011;22399;51.346;12.372;2023-04-08T11:21:18;30.10;;;10.48;;
36373;SDS011;22399;51.346;12.372;2023-04-08T11:23:48;31.13;;;9.65;;
36373;SDS011;22399;51.346;12.372;2023-04-08T11:26:17;29.98;;;8.13;;
36373;SDS011;22399;51.346;12.372;2023-04-08T11:28:46;25.80;;;8.63;;
36373;SDS011;22399;51.346;12.372;2023-04-08T11:31:17;28.63;;;8.60;;
36373;SDS011;22399;51.346;12.372;2023-04-08T11:33:53;32.63;;;9.07;;
36373;SDS011;22399;51.346;12.372;2023-04-08T11:36:22;29.08;;;8.63;;
36373;SDS011;22399;51.346;12.372;2023-04-08T11:38:52;26.65;;;8.98;;
36373;SDS011;22399;51.346;12.372;2023-04-08T11:41:21;23.98;;;7.05;;
36373;SDS011;22399;51.346;12.372;2023-04-08T11:43:50;22.95;;;8.05;;
36373;SDS011;22399;51.346;12.372;2023-04-08T11:46:19;25.10;;;8.23;;
36373;SDS011;22399;51.346;12.372;2023-04-08T11:49:02;28.13;;;9.38;;
36373;SDS011;22399;51.346;12.372;2023-04-08T11:51:32;26.08;;;7.72;;
36373;SDS011;22399;51.346;12.372;2023-04-08T11:54:03;25.45;;;8.02;;
36373;SDS011;22399;51.346;12.372;2023-04-08T11:56:43;28.88;;;8.02;;
36373;SDS011;22399;51.346;12.372;2023-04-08T11:59:12;32.95;;;9.10;;
36373;SDS011;22399;51.346;12.372;2023-04-08T12:01:41;25.20;;;8.82;;
36373;SDS011;22399;51.346;12.372;2023-04-08T12:04:11;31.33;;;9.68;;
36373;SDS011;22399;51.346;12.372;2023-04-08T12:06:40;21.60;;;7.82;;
36373;SDS011;22399;51.346;12.372;2023-04-08T12:09:09;28.10;;;9.05;;
36373;SDS011;22399;51.346;12.372;2023-04-08T12:11:37;22.10;;;7.22;;
36373;SDS011;22399;51.346;12.372;2023-04-08T12:14:05;25.60;;;8.65;;
36373;SDS011;22399;51.346;12.372;2023-04-08T12:16:34;23.98;;;7.30;;
36373;SDS011;22399;51.346;12.372;2023-04-08T12:19:03;22.38;;;7.68;;
36373;SDS011;22399;51.346;12.372;2023-04-08T12:21:33;20.92;;;7.03;;
36373;SDS011;22399;51.346;12.372;2023-04-08T12:24:01;24.30;;;8.63;;
36373;SDS011;22399;51.346;12.372;2023-04-08T12:26:30;24.52;;;7.80;;
36373;SDS011;22399;51.346;12.372;2023-04-08T12:28:59;17.00;;;6.90;;
36373;SDS011;22399;51.346;12.372;2023-04-08T12:31:27;23.25;;;8.23;;
36373;SDS011;22399;51.346;12.372;2023-04-08T12:33:56;21.60;;;7.38;;
36373;SDS011;22399;51.346;12.372;2023-04-08T12:36:25;19.27;;;7.22;;
36373;SDS011;22399;51.346;12.372;2023-04-08T12:38:55;25.63;;;7.25;;
36373;SDS011;22399;51.346;12.372;2023-04-08T12:41:23;22.73;;;7.43;;
36373;SDS011;22399;51.346;12.372;2023-04-08T12:43:52;19.52;;;7.03;;
36373;SDS011;22399;51.346;12.372;2023-04-08T12:46:20;24.75;;;7.75;;
36373;SDS011;22399;51.346;12.372;2023-04-08T12:48:49;25.30;;;6.95;;
36373;SDS011;22399;51.346;12.372;2023-04-08T12:51:30;21.10;;;6.18;;
36373;SDS011;22399;51.346;12.372;2023-04-08T12:54:00;22.33;;;7.43;;
36373;SDS011;22399;51.346;12.372;2023-04-08T12:56:29;22.05;;;7.03;;
36373;SDS011;22399;51.346;12.372;2023-04-08T12:58:59;22.63;;;7.05;;
36373;SDS011;22399;51.346;12.372;2023-04-08T13:01:27;21.13;;;6.97;;
36373;SDS011;22399;51.346;12.372;2023-04-08T13:03:56;18.65;;;7.63;;
36373;SDS011;22399;51.346;12.372;2023-04-08T13:06:26;18.08;;;7.03;;
36373;SDS011;22399;51.346;12.372;2023-04-08T13:08:54;22.52;;;7.38;;
36373;SDS011;22399;51.346;12.372;2023-04-08T13:11:24;21.98;;;7.43;;
36373;SDS011;22399;51.346;12.372;2023-04-08T13:13:52;18.08;;;6.13;;
36373;SDS011;22399;51.346;12.372;2023-04-08T13:16:21;23.30;;;7.13;;
36373;SDS011;22399;51.346;12.372;2023-04-08T13:18:50;21.83;;;7.50;;
36373;SDS011;22399;51.346;12.372;2023-04-08T13:21:18;22.08;;;7.80;;
36373;SDS011;22399;51.346;12.372;2023-04-08T13:23:47;18.52;;;7.13;;
36373;SDS011;22399;51.346;12.372;2023-04-08T13:26:15;16.50;;;7.18;;
36373;SDS011;22399;51.346;12.372;2023-04-08T13:28:45;23.33;;;8.30;;
36373;SDS011;22399;51.346;12.372;2023-04-08T13:31:22;23.88;;;7.43;;
36373;SDS011;22399;51.346;12.372;2023-04-08T13:33:51;23.20;;;8.18;;
36373;SDS011;22399;51.346;12.372;2023-04-08T13:36:24;28.85;;;8.77;;
36373;SDS011;22399;51.346;12.372;2023-04-08T13:38:54;22.85;;;7.15;;
36373;SDS011;22399;51.346;12.372;2023-04-08T13:41:23;17.60;;;5.95;;
36373;SDS011;22399;51.346;12.372;2023-04-08T13:43:55;19.52;;;6.63;;
36373;SDS011;22399;51.346;12.372;2023-04-08T13:46:23;19.73;;;7.00;;
36373;SDS011;22399;51.346;12.372;2023-04-08T13:48:53;18.75;;;6.80;;
36373;SDS011;22399;51.346;12.372;2023-04-08T13:51:21;19.25;;;5.90;;
36373;SDS011;22399;51.346;12.372;2023-04-08T13:53:50;16.85;;;6.60;;
36373;SDS011;22399;51.346;12.372;2023-04-08T13:56:18;22.55;;;6.75;;
36373;SDS011;22399;51.346;12.372;2023-04-08T13:58:47;25.05;;;6.50;;
36373;SDS011;22399;51.346;12.372;2023-04-08T14:03:52;16.25;;;5.85;;
36373;SDS011;22399;51.346;12.372;2023-04-08T14:06:21;18.23;;;6.68;;
36373;SDS011;22399;51.346;12.372;2023-04-08T14:08:49;19.67;;;6.72;;
36373;SDS011;22399;51.346;12.372;2023-04-08T14:11:18;16.05;;;6.28;;
36373;SDS011;22399;51.346;12.372;2023-04-08T14:13:47;14.82;;;5.80;;
36373;SDS011;22399;51.346;12.372;2023-04-08T14:16:15;18.08;;;6.13;;
36373;SDS011;22399;51.346;12.372;2023-04-08T14:18:45;16.73;;;6.63;;
36373;SDS011;22399;51.346;12.372;2023-04-08T14:21:14;18.30;;;5.57;;
36373;SDS011;22399;51.346;12.372;2023-04-08T14:23:43;17.92;;;5.30;;
36373;SDS011;22399;51.346;12.372;2023-04-08T14:26:12;19.58;;;5.70;;
36373;SDS011;22399;51.346;12.372;2023-04-08T14:28:40;16.73;;;6.20;;
36373;SDS011;22399;51.346;12.372;2023-04-08T14:31:08;19.40;;;5.88;;
36373;SDS011;22399;51.346;12.372;2023-04-08T14:33:38;16.60;;;6.63;;
36373;SDS011;22399;51.346;12.372;2023-04-08T14:36:08;22.45;;;6.95;;
36373;SDS011;22399;51.346;12.372;2023-04-08T14:38:36;17.77;;;5.57;;
36373;SDS011;22399;51.346;12.372;2023-04-08T14:41:05;17.83;;;6.05;;
36373;SDS011;22399;51.346;12.372;2023-04-08T14:43:33;15.45;;;6.53;;
36373;SDS011;22399;51.346;12.372;2023-04-08T14:46:02;15.10;;;5.78;;
36373;SDS011;22399;51.346;12.372;2023-04-08T14:48:30;17.25;;;6.45;;